createdAt,value
2023-08-07T05:21:55.327Z,17.97
2023-08-07T07:00:37.744Z,21.58
2023-08-07T07:01:15.181Z,21.68
2023-08-07T07:01:57.810Z,21.61
2023-08-07T07:20:12.443Z,20.65
2023-08-07T07:21:13.947Z,19.89
2023-08-07T07:26:27.376Z,20.25
2023-08-07T07:28:02.520Z,20.21
2023-08-07T07:30:08.905Z,20.03
2023-08-07T07:40:10.782Z,21.02
2023-08-07T07:43:30.567Z,20.60
2023-08-07T07:49:04.732Z,21.17
2023-08-07T07:50:03.388Z,21.15
2023-08-07T07:51:18.740Z,20.93
2023-08-07T07:52:13.652Z,20.96
2023-08-07T07:54:13.732Z,20.53
2023-08-07T07:55:24.479Z,20.47
2023-08-07T07:56:31.916Z,20.69
2023-08-07T07:58:14.979Z,21.14
2023-08-07T07:59:41.836Z,21.27
2023-08-07T08:01:37.300Z,20.73
2023-08-07T08:03:41.850Z,21.72
2023-08-07T08:05:35.871Z,22.57
2023-08-07T08:06:40.616Z,22.65
2023-08-07T08:11:07.096Z,22.96
2023-08-07T08:11:49.374Z,23.16
2023-08-07T08:12:30.871Z,23.18
2023-08-07T08:13:10.748Z,23.54
2023-08-07T08:13:57.735Z,23.95
2023-08-07T08:14:50.551Z,24.04
2023-08-07T08:15:31.958Z,23.78
2023-08-07T08:16:26.724Z,23.95
2023-08-07T08:17:08.343Z,24.03
2023-08-07T08:18:15.504Z,23.72
2023-08-07T08:18:52.533Z,23.54
2023-08-07T08:19:41.979Z,23.45
2023-08-07T08:20:27.922Z,23.52
2023-08-07T08:21:02.053Z,23.09
2023-08-07T08:22:32.556Z,22.93
2023-08-07T08:23:18.686Z,22.85
2023-08-07T08:24:38.021Z,23.17
2023-08-07T08:26:38.086Z,23.33
2023-08-07T08:27:19.780Z,23.40
2023-08-07T08:27:55.561Z,23.30
2023-08-07T08:28:37.360Z,23.22
2023-08-07T08:29:19.506Z,22.64
2023-08-07T08:29:56.471Z,22.28
2023-08-07T08:30:52.877Z,22.03
2023-08-07T08:32:17.841Z,22.09
2023-08-07T08:32:51.743Z,22.05
2023-08-07T08:33:27.285Z,21.98
2023-08-07T08:34:05.842Z,21.88
2023-08-07T08:34:51.965Z,21.67
2023-08-07T08:35:27.870Z,21.64
2023-08-07T08:36:02.016Z,22.14
2023-08-07T08:36:37.267Z,21.90
2023-08-07T08:37:29.460Z,21.92
2023-08-07T08:38:38.636Z,22.27
2023-08-07T08:39:14.981Z,22.34
2023-08-07T08:40:30.752Z,22.28
2023-08-07T08:42:00.360Z,21.93
2023-08-07T08:42:44.135Z,21.70
2023-08-07T08:44:23.758Z,22.32
2023-08-07T08:45:39.225Z,22.32
2023-08-07T08:46:13.291Z,22.37
2023-08-07T08:47:23.010Z,22.50
2023-08-07T08:50:10.986Z,22.28
2023-08-07T08:50:56.687Z,22.93
2023-08-07T08:51:57.007Z,23.28
2023-08-07T08:54:31.918Z,23.08
2023-08-07T08:55:23.712Z,22.89
2023-08-07T08:55:56.817Z,23.49
2023-08-07T08:56:35.261Z,23.55
2023-08-07T08:57:14.061Z,23.31
2023-08-07T08:57:51.727Z,23.19
2023-08-07T08:58:26.052Z,23.21
2023-08-07T08:59:02.482Z,23.15
2023-08-07T08:59:37.232Z,22.81
2023-08-07T09:00:19.247Z,22.65
2023-08-07T09:01:00.325Z,23.14
2023-08-07T09:01:39.738Z,22.89
2023-08-07T09:02:18.685Z,23.37
2023-08-07T09:02:54.694Z,23.61
2023-08-07T09:03:31.112Z,23.68
2023-08-07T09:04:07.521Z,23.73
2023-08-07T09:04:53.187Z,24.07
2023-08-07T09:05:28.999Z,24.40
2023-08-07T09:06:08.250Z,24.00
2023-08-07T09:06:44.403Z,23.49
2023-08-07T09:07:18.405Z,23.34
2023-08-07T09:07:54.308Z,22.97
2023-08-07T09:08:33.252Z,23.30
2023-08-07T09:09:11.172Z,23.69
2023-08-07T09:09:49.427Z,23.45
2023-08-07T09:10:28.104Z,23.45
2023-08-07T09:11:02.116Z,23.28
2023-08-07T09:11:36.041Z,23.10
2023-08-07T09:12:22.519Z,23.21
2023-08-07T09:13:06.494Z,23.48
2023-08-07T09:13:44.464Z,23.57
2023-08-07T09:14:32.938Z,24.15
2023-08-07T09:15:12.925Z,24.02
2023-08-07T09:15:53.082Z,24.34
2023-08-07T09:16:29.694Z,24.59
2023-08-07T09:17:46.107Z,23.91
2023-08-07T09:18:21.688Z,24.35
2023-08-07T09:18:57.639Z,24.19
2023-08-07T09:19:31.956Z,23.86
2023-08-07T09:20:13.081Z,23.69
2023-08-07T09:20:49.796Z,23.83
2023-08-07T09:21:27.623Z,23.55
2023-08-07T09:22:00.451Z,23.62
2023-08-07T09:22:33.824Z,23.59
2023-08-07T09:23:07.416Z,23.47
2023-08-07T09:25:42.959Z,24.43
2023-08-07T09:26:28.452Z,24.07
2023-08-07T09:27:03.642Z,23.75
2023-08-07T09:27:41.063Z,23.61
2023-08-07T09:28:28.660Z,23.48
2023-08-07T09:29:04.489Z,23.70
2023-08-07T09:30:14.108Z,24.20
2023-08-07T09:30:49.570Z,23.85
2023-08-07T09:31:29.562Z,24.23
2023-08-07T09:32:20.350Z,24.42
2023-08-07T09:32:55.842Z,24.99
2023-08-07T09:33:31.869Z,25.13
2023-08-07T09:34:10.282Z,25.42
2023-08-07T09:34:45.792Z,25.30
2023-08-07T09:35:23.544Z,25.18
2023-08-07T09:36:05.673Z,24.96
2023-08-07T09:37:14.140Z,24.90
2023-08-07T09:37:49.441Z,24.95
2023-08-07T09:38:58.318Z,23.99
2023-08-07T09:40:20.085Z,24.82
2023-08-07T09:41:30.560Z,23.84
2023-08-07T09:42:03.405Z,23.93
2023-08-07T09:42:39.611Z,23.96
2023-08-07T09:43:47.754Z,24.24
2023-08-07T09:44:24.550Z,24.61
2023-08-07T09:45:02.071Z,24.09
2023-08-07T09:46:11.068Z,25.16
2023-08-07T09:46:46.994Z,25.08
2023-08-07T09:47:20.844Z,24.68
2023-08-07T09:48:02.542Z,24.66
2023-08-07T09:48:55.029Z,24.21
2023-08-07T09:49:34.151Z,23.76
2023-08-07T09:50:21.486Z,23.63
2023-08-07T09:51:04.603Z,23.74
2023-08-07T09:51:56.814Z,23.58
2023-08-07T09:53:08.062Z,23.60
2023-08-07T09:53:41.795Z,23.90
2023-08-07T09:54:15.487Z,24.04
2023-08-07T09:54:49.069Z,23.93
2023-08-07T09:55:24.556Z,23.66
2023-08-07T09:56:03.611Z,23.31
2023-08-07T09:56:36.500Z,23.66
2023-08-07T09:57:12.233Z,24.33
2023-08-07T09:57:51.524Z,24.37
2023-08-07T09:59:00.157Z,25.09
2023-08-07T09:59:43.436Z,25.05
2023-08-07T10:00:21.392Z,24.95
2023-08-07T10:01:05.757Z,24.63
2023-08-07T10:01:44.026Z,24.45
2023-08-07T10:02:19.327Z,24.32
2023-08-07T10:02:58.875Z,24.48
2023-08-07T10:03:33.498Z,24.74
2023-08-07T10:04:08.511Z,24.78
2023-08-07T10:04:53.930Z,24.66
2023-08-07T10:05:32.084Z,24.82
2023-08-07T10:06:07.670Z,24.98
2023-08-07T10:06:41.100Z,24.91
2023-08-07T10:07:17.529Z,25.28
2023-08-07T10:07:53.188Z,25.77
2023-08-07T10:08:27.432Z,25.77
2023-08-07T10:09:03.644Z,25.63
2023-08-07T10:09:40.517Z,25.48
2023-08-07T10:10:20.459Z,25.82
2023-08-07T10:10:55.912Z,25.91
2023-08-07T10:11:31.452Z,25.98
2023-08-07T10:12:07.490Z,26.27
2023-08-07T10:12:43.486Z,26.22
2023-08-07T10:13:25.870Z,25.52
2023-08-07T10:14:15.982Z,25.80
2023-08-07T10:14:50.256Z,25.64
2023-08-07T10:16:54.866Z,25.86
2023-08-07T10:17:29.451Z,25.87
2023-08-07T10:18:03.147Z,26.16
2023-08-07T10:18:39.080Z,25.35
2023-08-07T10:19:15.135Z,25.44
2023-08-07T10:20:02.103Z,25.94
2023-08-07T10:20:38.613Z,26.07
2023-08-07T10:21:13.224Z,25.95
2023-08-07T10:21:56.444Z,26.28
2023-08-07T10:22:33.336Z,26.27
2023-08-07T10:23:08.599Z,26.18
2023-08-07T10:23:51.286Z,26.44
2023-08-07T10:24:28.577Z,26.68
2023-08-07T10:25:04.607Z,26.61
2023-08-07T10:25:44.291Z,26.39
2023-08-07T10:26:24.108Z,26.78
2023-08-07T10:27:01.631Z,26.26
2023-08-07T10:27:38.550Z,26.12
2023-08-07T10:28:16.820Z,26.71
2023-08-07T10:29:29.328Z,25.72
2023-08-07T10:30:09.166Z,25.92
2023-08-07T10:30:45.540Z,26.04
2023-08-07T10:31:19.552Z,26.77
2023-08-07T10:31:58.205Z,26.01
2023-08-07T10:32:39.773Z,26.01
2023-08-07T10:33:16.141Z,26.60
2023-08-07T10:33:52.424Z,26.98
2023-08-07T10:34:31.479Z,26.64
2023-08-07T10:35:07.479Z,26.67
2023-08-07T10:35:49.718Z,26.23
2023-08-07T10:36:25.071Z,25.93
2023-08-07T10:36:58.323Z,26.07
2023-08-07T10:37:46.324Z,25.71
2023-08-07T10:38:25.308Z,26.00
2023-08-07T10:39:15.055Z,26.44
2023-08-07T10:40:23.736Z,25.97
2023-08-07T10:41:15.730Z,26.09
2023-08-07T10:42:24.878Z,26.00
2023-08-07T10:43:01.591Z,25.73
2023-08-07T10:43:43.776Z,24.78
2023-08-07T10:44:27.360Z,25.20
2023-08-07T10:45:03.354Z,25.24
2023-08-07T10:45:40.299Z,25.20
2023-08-07T10:46:47.403Z,25.11
2023-08-07T10:47:35.569Z,24.90
2023-08-07T10:48:19.131Z,24.97
2023-08-07T10:49:40.218Z,25.14
2023-08-07T10:50:17.632Z,25.09
2023-08-07T10:51:01.748Z,25.09
2023-08-07T10:51:37.175Z,24.97
2023-08-07T10:52:16.641Z,25.00
2023-08-07T10:52:53.822Z,24.88
2023-08-07T10:53:38.296Z,24.75
2023-08-07T10:54:14.015Z,24.68
2023-08-07T10:54:51.448Z,24.70
2023-08-07T10:55:25.127Z,24.80
2023-08-07T10:56:05.605Z,24.59
2023-08-07T10:56:43.370Z,24.62
2023-08-07T10:57:19.648Z,24.61
2023-08-07T10:57:55.752Z,24.64
2023-08-07T10:58:32.040Z,24.65
2023-08-07T10:59:53.069Z,24.53
2023-08-07T11:00:30.991Z,24.34
2023-08-07T11:01:28.708Z,24.23
2023-08-07T11:02:02.164Z,24.17
2023-08-07T11:02:42.137Z,24.19
2023-08-07T11:03:28.603Z,24.29
2023-08-07T11:04:02.372Z,24.25
2023-08-07T11:04:37.804Z,24.21
2023-08-07T11:05:45.107Z,24.29
2023-08-07T11:06:56.366Z,24.38
2023-08-07T11:07:32.321Z,24.84
2023-08-07T11:08:06.279Z,24.76
2023-08-07T11:08:42.636Z,24.87
2023-08-07T11:09:19.262Z,25.17
2023-08-07T11:09:53.414Z,25.42
2023-08-07T11:10:29.043Z,25.57
2023-08-07T11:11:07.335Z,25.48
2023-08-07T11:11:48.240Z,25.44
2023-08-07T11:12:25.393Z,25.12
2023-08-07T11:13:01.050Z,25.29
2023-08-07T11:13:35.284Z,25.19
2023-08-07T11:14:10.188Z,24.96
2023-08-07T11:14:43.539Z,24.87
2023-08-07T11:15:17.236Z,24.78
2023-08-07T11:15:52.621Z,24.79
2023-08-07T11:16:35.389Z,24.93
2023-08-07T11:17:11.241Z,24.82
2023-08-07T11:17:47.474Z,24.84
2023-08-07T11:18:20.548Z,24.82
2023-08-07T11:19:26.766Z,24.81
2023-08-07T11:20:02.939Z,24.61
2023-08-07T11:20:39.778Z,24.55
2023-08-07T11:21:15.056Z,24.71
2023-08-07T11:21:49.556Z,24.64
2023-08-07T11:22:23.817Z,24.50
2023-08-07T11:23:01.057Z,24.35
2023-08-07T11:23:37.175Z,24.26
2023-08-07T11:24:14.801Z,24.32
2023-08-07T11:25:23.015Z,24.28
2023-08-07T11:25:56.603Z,24.09
2023-08-07T11:26:30.859Z,23.75
2023-08-07T11:27:06.278Z,23.55
2023-08-07T11:27:44.611Z,23.39
2023-08-07T11:28:26.883Z,23.09
2023-08-07T11:28:59.506Z,22.58
2023-08-07T11:29:43.986Z,22.14
2023-08-07T11:30:25.323Z,22.07
2023-08-07T11:31:54.450Z,21.99
2023-08-07T11:33:08.612Z,21.03
2023-08-07T11:33:57.039Z,20.63
2023-08-07T11:35:19.711Z,20.40
2023-08-07T11:45:54.874Z,19.20
2023-08-07T11:50:07.543Z,19.14
2023-08-07T11:51:18.771Z,19.11
2023-08-07T11:52:33.468Z,19.15
2023-08-07T11:53:27.502Z,19.13
2023-08-07T11:57:32.652Z,18.80
2023-08-07T12:10:20.694Z,18.35
2023-08-07T12:12:25.095Z,18.53
2023-08-07T12:15:21.648Z,18.38
2023-08-07T12:17:52.243Z,18.44
2023-08-07T12:18:40.449Z,18.10
2023-08-07T12:20:40.635Z,18.12
2023-08-07T12:21:24.100Z,17.52
2023-08-07T12:32:17.167Z,18.67
2023-08-07T12:35:22.499Z,18.97
2023-08-07T12:35:59.860Z,19.08
2023-08-07T12:36:56.617Z,19.17
2023-08-07T12:40:49.895Z,19.73
2023-08-07T12:42:31.621Z,19.97
2023-08-07T12:43:40.599Z,20.06
2023-08-07T12:44:38.095Z,20.09
2023-08-07T12:46:47.050Z,20.38
2023-08-07T12:47:21.382Z,20.26
2023-08-07T12:47:55.750Z,20.29
2023-08-07T12:48:31.438Z,20.61
2023-08-07T12:50:01.546Z,20.96
2023-08-07T12:50:38.152Z,21.19
2023-08-07T12:51:13.710Z,21.31
2023-08-07T12:51:49.320Z,21.29
2023-08-07T12:52:23.324Z,21.31
2023-08-07T12:53:00.177Z,21.43
2023-08-07T12:53:34.143Z,21.44
2023-08-07T12:54:10.371Z,21.09
2023-08-07T12:54:45.998Z,21.35
2023-08-07T12:55:21.193Z,21.53
2023-08-07T12:55:55.218Z,21.19
2023-08-07T12:56:29.698Z,21.15
2023-08-07T12:57:05.272Z,21.23
2023-08-07T12:57:45.279Z,21.28
2023-08-07T12:58:21.955Z,20.80
2023-08-07T12:58:57.570Z,21.00
2023-08-07T12:59:33.017Z,21.52
2023-08-07T13:00:09.860Z,21.26
2023-08-07T13:00:45.167Z,21.16
2023-08-07T13:01:20.489Z,21.35
2023-08-07T13:01:56.343Z,21.29
2023-08-07T13:02:30.011Z,21.65
2023-08-07T13:03:05.148Z,21.92
2023-08-07T13:03:44.116Z,21.90
2023-08-07T13:04:18.575Z,21.55
2023-08-07T13:04:55.260Z,21.62
2023-08-07T13:11:33.019Z,21.45
2023-08-07T13:12:43.825Z,21.26
2023-08-07T13:13:19.172Z,21.29
2023-08-07T13:13:54.241Z,21.33
2023-08-07T13:14:29.512Z,21.56
2023-08-07T13:15:04.621Z,21.88
2023-08-07T13:15:40.265Z,22.02
2023-08-07T13:16:15.836Z,22.12
2023-08-07T13:16:52.356Z,22.16
2023-08-07T13:17:28.051Z,21.80
2023-08-07T13:18:04.463Z,21.93
2023-08-07T13:18:40.177Z,21.89
2023-08-07T13:19:15.187Z,21.92
2023-08-07T13:19:48.258Z,22.22
2023-08-07T13:20:21.768Z,22.22
2023-08-07T13:20:53.706Z,22.11
2023-08-07T13:22:00.405Z,22.47
2023-08-07T13:22:34.157Z,22.69
2023-08-07T13:23:40.209Z,22.48
2023-08-07T13:24:14.555Z,22.01
2023-08-07T13:24:51.212Z,21.92
2023-08-07T13:25:26.687Z,22.22
2023-08-07T13:26:02.318Z,22.54
2023-08-07T13:26:36.513Z,22.60
2023-08-07T13:27:10.611Z,22.83
2023-08-07T13:27:46.240Z,23.02
2023-08-07T13:28:21.278Z,23.11
2023-08-07T13:28:57.264Z,23.07
2023-08-07T13:29:32.240Z,23.17
2023-08-07T13:30:05.367Z,23.19
2023-08-07T13:30:39.098Z,23.25
2023-08-07T13:31:47.755Z,23.34
2023-08-07T13:32:23.258Z,23.21
2023-08-07T13:33:31.886Z,23.29
2023-08-07T13:34:09.906Z,23.51
2023-08-07T13:34:43.043Z,23.53
2023-08-07T13:35:18.247Z,23.55
2023-08-07T13:35:50.964Z,23.44
2023-08-07T13:36:22.900Z,23.49
2023-08-07T13:37:00.172Z,23.48
2023-08-07T13:37:35.236Z,23.69
2023-08-07T13:38:09.262Z,23.74
2023-08-07T13:38:46.114Z,23.65
2023-08-07T13:39:21.264Z,23.80
2023-08-07T13:39:54.305Z,23.87
2023-08-07T13:40:32.760Z,23.75
2023-08-07T13:41:08.131Z,23.87
2023-08-07T13:41:43.287Z,23.73
2023-08-07T13:42:18.286Z,23.71
2023-08-07T13:42:50.311Z,23.66
2023-08-07T13:43:22.541Z,23.40
2023-08-07T13:43:56.532Z,23.39
2023-08-07T13:44:30.289Z,23.46
2023-08-07T13:45:03.594Z,23.29
2023-08-07T13:45:41.312Z,23.34
2023-08-07T13:46:16.687Z,23.44
2023-08-07T13:46:52.581Z,23.46
2023-08-07T13:47:32.754Z,23.19
2023-08-07T13:48:11.463Z,23.06
2023-08-07T13:48:45.852Z,23.04
2023-08-07T13:49:52.948Z,22.84
2023-08-07T13:50:25.190Z,22.74
2023-08-07T13:51:02.298Z,22.83
2023-08-07T13:51:38.159Z,22.85
2023-08-07T13:52:13.592Z,22.82
2023-08-07T13:53:21.111Z,22.73
2023-08-07T13:53:54.682Z,22.92
2023-08-07T13:54:28.408Z,23.03
2023-08-07T13:55:02.428Z,23.08
2023-08-07T13:55:49.091Z,22.98
2023-08-07T13:56:24.996Z,23.07
2023-08-07T13:56:58.358Z,23.20
2023-08-07T13:57:30.407Z,23.29
2023-08-07T13:58:02.416Z,23.24
2023-08-07T13:59:10.850Z,23.54
2023-08-07T13:59:46.039Z,23.65
2023-08-07T14:00:21.376Z,23.71
2023-08-07T14:00:58.526Z,23.22
2023-08-07T14:01:34.452Z,23.28
2023-08-07T14:02:39.736Z,23.35
2023-08-07T14:03:16.130Z,23.56
2023-08-07T14:03:49.361Z,23.55
2023-08-07T14:04:54.771Z,23.74
2023-08-07T14:05:30.325Z,23.83
2023-08-07T14:06:05.514Z,23.77
2023-08-07T14:06:51.951Z,23.83
2023-08-07T14:07:23.887Z,23.88
2023-08-07T14:07:59.636Z,23.74
2023-08-07T14:08:34.089Z,23.73
2023-08-07T14:09:10.553Z,23.74
2023-08-07T14:09:46.264Z,23.78
2023-08-07T14:10:18.777Z,23.88
2023-08-07T14:11:28.903Z,23.75
2023-08-07T14:12:01.015Z,23.63
2023-08-07T14:12:32.972Z,23.56
2023-08-07T14:13:04.965Z,23.62
2023-08-07T14:13:40.260Z,23.71
2023-08-07T14:14:15.247Z,23.78
2023-08-07T14:14:47.647Z,23.88
2023-08-07T14:15:55.858Z,23.80
2023-08-07T14:16:27.963Z,23.77
2023-08-07T14:17:34.941Z,23.73
2023-08-07T14:18:07.723Z,23.81
2023-08-07T14:18:40.222Z,23.83
2023-08-07T14:19:12.396Z,23.79
2023-08-07T14:19:44.517Z,23.81
2023-08-07T14:21:02.170Z,23.86
2023-08-07T14:21:42.242Z,23.81
2023-08-07T14:22:20.951Z,23.61
2023-08-07T14:22:56.875Z,23.52
2023-08-07T14:23:34.958Z,23.59
2023-08-07T14:24:11.931Z,23.54
2023-08-07T14:24:48.561Z,23.39
2023-08-07T14:25:32.975Z,23.23
2023-08-07T14:26:08.277Z,23.20
2023-08-07T14:26:43.901Z,23.29
2023-08-07T14:27:15.975Z,23.42
2023-08-07T14:27:54.267Z,23.39
2023-08-07T14:28:32.060Z,23.22
2023-08-07T14:29:09.439Z,23.13
2023-08-07T14:30:16.781Z,23.20
2023-08-07T14:30:52.420Z,23.36
2023-08-07T14:31:26.409Z,23.41
2023-08-07T14:32:34.941Z,23.30
2023-08-07T14:33:08.483Z,23.35
2023-08-07T14:33:40.561Z,23.40
2023-08-07T14:34:50.398Z,23.54
2023-08-07T14:35:24.314Z,23.64
2023-08-07T14:35:57.368Z,23.61
2023-08-07T14:36:29.622Z,23.59
2023-08-07T14:37:38.298Z,23.61
2023-08-07T14:38:51.702Z,23.64
2023-08-07T14:39:28.573Z,23.67
2023-08-07T14:40:04.266Z,23.65
2023-08-07T14:40:42.205Z,23.60
2023-08-07T14:41:18.365Z,23.70
2023-08-07T14:42:26.941Z,23.41
2023-08-07T14:42:59.100Z,23.40
2023-08-07T14:44:06.004Z,23.28
2023-08-07T14:44:37.930Z,23.48
2023-08-07T14:45:44.894Z,23.53
2023-08-07T14:46:21.769Z,23.46
2023-08-07T14:46:53.972Z,23.43
2023-08-07T14:48:00.338Z,23.64
2023-08-07T14:48:33.338Z,23.69
2023-08-07T14:49:06.312Z,23.70
2023-08-07T14:50:13.679Z,23.68
2023-08-07T14:50:49.447Z,23.72
2023-08-07T14:51:28.224Z,23.67
2023-08-07T14:52:03.576Z,23.61
2023-08-07T14:52:36.713Z,23.46
2023-08-07T14:53:08.888Z,23.59
2023-08-07T14:54:13.712Z,23.64
2023-08-07T14:54:45.761Z,23.61
2023-08-07T14:55:19.094Z,23.62
2023-08-07T14:55:51.275Z,23.66
2023-08-07T14:56:29.293Z,23.59
2023-08-07T14:57:04.901Z,23.63
2023-08-07T14:57:40.404Z,23.58
2023-08-07T14:58:18.155Z,23.48
2023-08-07T14:58:53.910Z,23.07
2023-08-07T14:59:29.319Z,23.11
2023-08-07T15:00:02.874Z,22.97
2023-08-07T15:00:39.531Z,22.89
2023-08-07T15:01:16.620Z,22.83
2023-08-07T15:01:52.053Z,22.84
2023-08-07T15:02:27.218Z,22.89
2023-08-07T15:03:00.255Z,22.85
2023-08-07T15:03:38.462Z,22.83
2023-08-07T15:04:15.370Z,22.86
2023-08-07T15:04:49.548Z,22.73
2023-08-07T15:05:23.238Z,22.64
2023-08-07T15:06:01.246Z,22.63
2023-08-07T15:06:40.633Z,22.58
2023-08-07T15:07:14.353Z,22.63
2023-08-07T15:07:49.336Z,22.61
2023-08-07T15:08:57.295Z,22.43
2023-08-07T15:09:35.301Z,22.44
2023-08-07T15:10:10.638Z,22.36
2023-08-07T15:10:49.341Z,22.25
2023-08-07T15:11:26.249Z,22.17
2023-08-07T15:12:33.403Z,22.06
2023-08-07T15:13:08.734Z,21.90
2023-08-07T15:13:48.606Z,21.85
2023-08-07T15:14:22.538Z,21.87
2023-08-07T15:14:56.355Z,21.90
2023-08-07T15:15:31.421Z,21.90
2023-08-07T15:16:06.423Z,21.95
2023-08-07T15:16:42.933Z,21.75
2023-08-07T15:17:18.384Z,21.75
2023-08-07T15:17:53.905Z,21.86
2023-08-07T15:18:29.471Z,21.75
2023-08-07T15:19:06.150Z,21.60
2023-08-07T15:19:41.380Z,21.45
2023-08-07T15:20:17.536Z,21.34
2023-08-07T15:20:50.358Z,21.33
2023-08-07T15:21:55.957Z,21.14
2023-08-07T15:22:34.092Z,21.14
2023-08-07T15:23:07.771Z,21.17
2023-08-07T15:23:41.372Z,21.16
2023-08-07T15:24:19.235Z,21.21
2023-08-07T15:24:54.316Z,21.28
2023-08-07T15:25:29.645Z,21.33
2023-08-07T15:26:03.363Z,21.43
2023-08-07T15:26:38.393Z,21.49
2023-08-07T15:27:11.430Z,21.42
2023-08-07T15:28:18.003Z,21.28
2023-08-07T15:28:53.503Z,21.35
2023-08-07T15:29:36.911Z,21.19
2023-08-07T15:30:09.814Z,21.14
2023-08-07T15:30:50.935Z,21.21
2023-08-07T15:31:59.771Z,21.10
2023-08-07T15:32:33.581Z,21.08
2023-08-07T15:33:10.295Z,21.07
2023-08-07T15:33:48.500Z,21.06
2023-08-07T15:34:24.451Z,21.13
2023-08-07T15:35:02.990Z,21.18
2023-08-07T15:35:41.725Z,21.11
2023-08-07T15:36:17.864Z,21.14
2023-08-07T15:36:53.304Z,21.15
2023-08-07T15:37:28.389Z,21.16
2023-08-07T15:38:09.149Z,21.23
2023-08-07T15:38:44.572Z,21.13
2023-08-07T15:39:18.759Z,21.18
2023-08-07T15:39:54.297Z,21.16
2023-08-07T15:40:26.326Z,21.23
2023-08-07T15:41:35.330Z,21.35
2023-08-07T15:42:07.899Z,21.26
2023-08-07T15:43:14.992Z,21.34
2023-08-07T15:43:53.601Z,21.34
2023-08-07T15:44:27.277Z,21.36
2023-08-07T15:45:00.438Z,21.42
2023-08-07T15:45:33.340Z,21.38
2023-08-07T15:46:08.431Z,21.38
2023-08-07T15:46:42.496Z,21.46
2023-08-07T15:47:17.535Z,21.36
2023-08-07T15:47:53.834Z,21.30
2023-08-07T15:48:30.599Z,21.46
2023-08-07T15:49:03.481Z,21.51
2023-08-07T15:49:39.420Z,21.50
2023-08-07T15:50:12.315Z,21.55
2023-08-07T15:51:21.217Z,21.43
2023-08-07T15:51:56.646Z,21.46
2023-08-07T15:52:30.380Z,21.50
2023-08-07T15:53:06.664Z,21.54
2023-08-07T15:53:42.347Z,21.50
2023-08-07T15:54:17.394Z,21.46
2023-08-07T15:54:49.488Z,21.46
2023-08-07T15:55:25.552Z,21.48
2023-08-07T15:55:59.552Z,21.50
2023-08-07T15:56:33.532Z,21.53
2023-08-07T15:57:07.631Z,21.56
2023-08-07T15:57:46.539Z,21.60
2023-08-07T15:58:23.843Z,21.59
2023-08-07T15:58:59.406Z,21.63
2023-08-07T15:59:34.329Z,21.65
2023-08-07T16:00:11.125Z,21.53
2023-08-07T16:00:45.061Z,21.55
2023-08-07T16:01:18.629Z,21.54
2023-08-07T16:01:52.547Z,21.52
2023-08-07T16:02:28.339Z,21.50
2023-08-07T16:03:03.751Z,21.54
2023-08-07T16:03:38.058Z,21.53
2023-08-07T16:04:11.773Z,21.59
2023-08-07T16:04:47.441Z,21.62
2023-08-07T16:05:21.936Z,21.65
2023-08-07T16:05:55.508Z,21.75
2023-08-07T16:07:16.372Z,21.84
2023-08-07T16:08:25.012Z,21.70
2023-08-07T16:09:00.459Z,21.77
2023-08-07T16:09:35.526Z,21.71
2023-08-07T16:10:13.926Z,21.76
2023-08-07T16:10:45.885Z,21.72
2023-08-07T16:11:52.465Z,21.69
2023-08-07T16:12:27.648Z,21.74
2023-08-07T16:13:01.715Z,21.76
2023-08-07T16:14:08.865Z,21.63
2023-08-07T16:14:41.928Z,21.61
2023-08-07T16:15:17.639Z,21.55
2023-08-07T16:15:50.630Z,21.50
2023-08-07T16:16:26.800Z,21.46
2023-08-07T16:17:00.970Z,21.38
2023-08-07T16:17:39.507Z,21.34
2023-08-07T16:18:17.461Z,21.29
2023-08-07T16:18:49.511Z,21.29
2023-08-07T16:19:57.678Z,21.14
2023-08-07T16:20:33.430Z,21.07
2023-08-07T16:21:06.538Z,21.12
2023-08-07T16:21:41.573Z,20.90
2023-08-07T16:22:14.699Z,20.85
2023-08-07T16:22:52.001Z,20.92
2023-08-07T16:23:27.526Z,20.94
2023-08-07T16:24:02.715Z,20.72
2023-08-07T16:24:36.741Z,20.78
2023-08-07T16:25:12.124Z,20.81
2023-08-07T16:25:47.487Z,20.74
2023-08-07T16:26:21.115Z,20.80
2023-08-07T16:26:59.392Z,20.70
2023-08-07T16:27:33.195Z,20.66
2023-08-07T16:28:14.003Z,20.66
2023-08-07T16:28:49.233Z,20.67
2023-08-07T16:29:24.700Z,20.70
2023-08-07T16:30:04.388Z,20.67
2023-08-07T16:30:39.607Z,20.54
2023-08-07T16:31:47.957Z,20.61
2023-08-07T16:32:23.621Z,20.30
2023-08-07T16:32:58.672Z,20.28
2023-08-07T16:33:32.634Z,20.34
2023-08-07T16:34:06.439Z,20.42
2023-08-07T16:34:41.546Z,20.41
2023-08-07T16:35:19.020Z,20.43
2023-08-07T16:35:59.678Z,20.34
2023-08-07T16:36:33.684Z,20.28
2023-08-07T16:37:18.555Z,20.37
2023-08-07T16:37:53.843Z,20.27
2023-08-07T16:38:29.520Z,20.36
2023-08-07T16:39:04.896Z,20.33
2023-08-07T16:39:40.620Z,20.37
2023-08-07T16:40:15.601Z,20.42
2023-08-07T16:40:50.597Z,20.42
2023-08-07T16:41:24.296Z,20.37
2023-08-07T16:41:59.744Z,20.23
2023-08-07T16:42:33.768Z,20.22
2023-08-07T16:43:08.469Z,20.13
2023-08-07T16:43:43.590Z,20.12
2023-08-07T16:44:18.635Z,20.17
2023-08-07T16:44:54.213Z,20.24
2023-08-07T16:46:02.617Z,20.23
2023-08-07T16:46:42.934Z,20.19
2023-08-07T16:47:18.617Z,20.05
2023-08-07T16:47:53.513Z,19.99
2023-08-07T16:48:28.770Z,19.96
2023-08-07T16:49:04.656Z,20.05
2023-08-07T16:49:40.060Z,20.08
2023-08-07T16:51:07.325Z,20.00
2023-08-07T16:51:42.669Z,19.94
2023-08-07T16:52:17.916Z,20.00
2023-08-07T16:52:51.583Z,20.00
2023-08-07T16:53:26.775Z,19.95
2023-08-07T16:54:02.608Z,19.90
2023-08-07T16:54:37.770Z,19.86
2023-08-07T16:55:45.602Z,19.77
2023-08-07T16:56:20.826Z,19.86
2023-08-07T16:56:55.564Z,19.71
2023-08-07T16:57:30.444Z,19.71
2023-08-07T16:58:05.795Z,19.86
2023-08-07T16:58:45.115Z,19.90
2023-08-07T16:59:19.270Z,19.88
2023-08-07T16:59:53.316Z,19.89
2023-08-07T17:00:28.852Z,19.74
2023-08-07T17:01:04.318Z,19.71
2023-08-07T17:01:39.618Z,19.72
2023-08-07T17:02:13.456Z,19.71
2023-08-07T17:02:48.964Z,19.66
2023-08-07T17:03:27.223Z,19.70
2023-08-07T17:04:02.655Z,19.70
2023-08-07T17:04:36.759Z,19.68
2023-08-07T17:05:10.704Z,19.56
2023-08-07T17:05:44.671Z,19.54
2023-08-07T17:06:18.815Z,19.61
2023-08-07T17:06:52.565Z,19.70
2023-08-07T17:07:27.682Z,19.61
2023-08-07T17:08:04.972Z,19.43
2023-08-07T17:08:40.801Z,19.47
2023-08-07T17:09:20.306Z,19.54
2023-08-07T17:09:55.667Z,19.55
2023-08-07T17:10:32.145Z,19.62
2023-08-07T17:11:11.203Z,19.56
2023-08-07T17:12:23.158Z,19.50
2023-08-07T17:12:59.065Z,19.43
2023-08-07T17:13:34.584Z,19.45
2023-08-07T17:14:09.536Z,19.48
2023-08-07T17:14:44.715Z,19.47
2023-08-07T17:15:19.417Z,19.43
2023-08-07T17:15:54.847Z,19.41
2023-08-07T17:16:29.343Z,19.40
2023-08-07T17:17:05.097Z,19.39
2023-08-07T17:17:40.723Z,19.40
2023-08-07T17:18:14.767Z,19.39
2023-08-07T17:18:48.778Z,19.39
2023-08-07T17:19:22.884Z,19.44
2023-08-07T17:19:56.761Z,19.37
2023-08-07T17:20:33.137Z,19.25
2023-08-07T17:21:07.655Z,19.10
2023-08-07T17:21:42.684Z,19.04
2023-08-07T17:22:17.550Z,19.11
2023-08-07T17:22:52.642Z,19.17
2023-08-07T17:24:01.580Z,19.29
2023-08-07T17:24:36.592Z,19.28
2023-08-07T17:25:44.753Z,19.24
2023-08-07T17:26:20.619Z,19.19
2023-08-07T17:26:55.542Z,19.19
2023-08-07T17:27:30.803Z,19.17
2023-08-07T17:28:09.585Z,19.16
2023-08-07T17:28:44.938Z,19.17
2023-08-07T17:29:23.723Z,19.19
2023-08-07T17:30:34.427Z,19.12
2023-08-07T17:31:09.691Z,19.12
2023-08-07T17:31:43.930Z,19.08
2023-08-07T17:32:19.735Z,19.03
2023-08-07T17:32:54.486Z,19.06
2023-08-07T17:33:34.797Z,19.11
2023-08-07T17:34:41.061Z,19.08
2023-08-07T17:35:15.769Z,19.08
2023-08-07T17:36:23.699Z,19.05
2023-08-07T17:36:58.984Z,19.00
2023-08-07T17:37:32.775Z,18.88
2023-08-07T17:38:06.576Z,18.83
2023-08-07T17:38:45.383Z,18.79
2023-08-07T17:39:18.834Z,18.83
2023-08-07T17:39:52.612Z,18.86
2023-08-07T17:40:27.707Z,18.89
2023-08-07T17:41:02.018Z,18.87
2023-08-07T17:41:35.786Z,18.81
2023-08-07T17:42:10.618Z,18.81
2023-08-07T17:42:45.888Z,18.90
2023-08-07T17:43:57.302Z,18.97
2023-08-07T17:44:32.593Z,18.92
2023-08-07T17:45:08.258Z,18.89
2023-08-07T17:45:43.901Z,18.89
2023-08-07T17:46:19.525Z,18.85
2023-08-07T17:46:58.032Z,18.83
2023-08-07T17:47:33.645Z,18.82
2023-08-07T17:48:09.856Z,18.89
2023-08-07T17:48:45.733Z,18.93
2023-08-07T17:49:19.738Z,18.90